Portada
METAR-TAF:

METAR-TAF

Aeroports :

Aeroport de Copenhaguen

Copenhaguen, Dinamarca

latitud: 55-37N, longitud: 012-39E, altitud: 5 m

Observació

L'informe es va fer fa 31 minuts, a les 00:20 UTC
Vent 14 kt del Sud-Oest
Temperatura 19°C
Humitat 83%
Pressió 1012 hPa
Visibilitat 10 km o més
sense núvols per sota de 1500 mi sense presència de cumulonimbus.

METAR: EKCH 200020Z 22014KT CAVOK 19/16 Q1012 NOSIG

Hora: 02:51 (00:51 UTC)

Pronòstic

L'informe es va fer fa 1 hora i 47 minuts, a les 23:04 UTC
Pronòstic vàlid del 20 a les 00 UTC al 20 a les 24 UTC
Vent 10 kt del Sud/Sud-Oest
Visibilitat 10 km o més
Cel ennuvolat a una alçada de 2500 ft
Temporalment
l' 20 a les 02 UTC al 20 a les 09 UTC
Cel ennuvolat a una alçada de 800 ft
pluja, plugim
Evolucionant progressivament
l' 20 a les 06 UTC al 20 a les 09 UTC
Vent 15 kt del Oest/Nord-Oest

TAF: EKCH 192304Z 2000/2024 20010KT 9999 BKN025 TEMPO 2002/2009 -RADZ BKN008 BECMG 2006/2009 29015KT

Observacions i pronòstics meteorològics de més de 4000 aeroports (METAR i TAF).

Les estacions disponibles són els punts grocs i vermells al mapa.

Posi el ratolí al punt desitjat per veure el nom de l'estació.

Feu clic per veure les observacions i els pronòstics meteorològics.

Per canviar el mapa: feu clic els botons verds amb una creu de color negre per apropar; al botó verd amb un guió per allunyar la imatge; o en les fletxes verdes per a mapes adjacents.


METAR-TAF: